createdAt,value
2017-12-27T00:00:52.165Z,995.16
2017-12-27T00:02:00.984Z,995.12
2017-12-27T00:03:09.807Z,995.12
2017-12-27T00:04:18.631Z,995.06
2017-12-27T00:05:27.738Z,995.09
2017-12-27T00:06:36.856Z,995.12
2017-12-27T00:07:45.680Z,995.07
2017-12-27T00:08:54.522Z,995.04
2017-12-27T00:10:03.331Z,995.02
2017-12-27T00:11:12.156Z,994.98
2017-12-27T00:12:21.031Z,994.9
2017-12-27T00:13:29.856Z,994.93
2017-12-27T00:14:38.681Z,994.91
2017-12-27T00:15:47.505Z,994.84
2017-12-27T00:16:56.874Z,994.81
2017-12-27T00:18:05.800Z,994.76
2017-12-27T00:19:14.623Z,994.73
2017-12-27T00:20:23.448Z,994.69
2017-12-27T00:21:32.273Z,994.68
2017-12-27T00:22:41.100Z,994.71
2017-12-27T00:23:49.924Z,994.65
2017-12-27T00:24:59.023Z,994.64
2017-12-27T00:26:07.849Z,994.59
2017-12-27T00:27:16.678Z,994.6
2017-12-27T00:28:25.502Z,994.59
2017-12-27T00:29:34.327Z,994.58
2017-12-27T00:30:43.154Z,994.59
2017-12-27T00:31:51.980Z,994.54
2017-12-27T00:33:00.804Z,994.54
2017-12-27T00:34:09.626Z,994.45
2017-12-27T00:35:18.454Z,994.47
2017-12-27T00:36:27.276Z,994.36
2017-12-27T00:37:36.100Z,994.35
2017-12-27T00:38:44.924Z,994.33
2017-12-27T00:39:53.749Z,994.34
2017-12-27T00:41:02.873Z,994.36
2017-12-27T00:42:11.697Z,994.39
2017-12-27T00:43:20.524Z,994.4
2017-12-27T00:44:29.621Z,994.33
2017-12-27T00:45:38.447Z,994.29
2017-12-27T00:46:47.269Z,994.34
2017-12-27T00:47:56.096Z,994.33
2017-12-27T00:49:04.919Z,994.35
2017-12-27T00:50:14.025Z,994.3
2017-12-27T00:51:22.850Z,994.34
2017-12-27T00:52:31.775Z,994.27
2017-12-27T00:53:40.597Z,994.27
2017-12-27T00:54:49.424Z,994.3
2017-12-27T00:55:58.253Z,994.27
2017-12-27T00:57:07.071Z,994.21
2017-12-27T00:58:16.320Z,994.2
2017-12-27T00:59:25.146Z,994.19
2017-12-27T01:00:33.970Z,994.2
2017-12-27T01:01:42.795Z,994.14
2017-12-27T01:02:51.619Z,994.15
2017-12-27T01:04:00.746Z,994.08
2017-12-27T01:05:09.849Z,994.05
2017-12-27T01:06:18.675Z,994.04
2017-12-27T01:07:27.502Z,994.05
2017-12-27T01:08:36.328Z,994.06
2017-12-27T01:09:45.578Z,993.98
2017-12-27T01:10:54.401Z,993.99
2017-12-27T01:12:03.227Z,994
2017-12-27T01:13:12.330Z,993.98
2017-12-27T01:14:21.155Z,993.95
2017-12-27T01:15:30.080Z,994.01
2017-12-27T01:16:38.905Z,994.01
2017-12-27T01:17:47.730Z,993.93
2017-12-27T01:18:56.830Z,993.98
2017-12-27T01:20:05.651Z,993.95
2017-12-27T01:21:14.576Z,993.95
2017-12-27T01:22:23.401Z,993.9
2017-12-27T01:23:32.231Z,993.91
2017-12-27T01:24:41.055Z,993.86
2017-12-27T01:25:49.878Z,993.88
2017-12-27T01:26:59.004Z,993.86
2017-12-27T01:28:07.827Z,993.84
2017-12-27T01:29:16.653Z,993.84
2017-12-27T01:30:25.477Z,993.85
2017-12-27T01:31:34.304Z,993.81
2017-12-27T01:32:43.233Z,993.84
2017-12-27T01:33:52.053Z,993.83
2017-12-27T01:35:00.878Z,993.79
2017-12-27T01:36:09.701Z,993.76
2017-12-27T01:37:18.524Z,993.76
2017-12-27T01:38:27.348Z,993.7
2017-12-27T01:39:36.173Z,993.62
2017-12-27T01:40:45.268Z,993.56
2017-12-27T01:41:54.095Z,993.49
2017-12-27T01:43:02.922Z,993.49
2017-12-27T01:44:11.796Z,993.48
2017-12-27T01:45:20.623Z,993.45
2017-12-27T01:46:29.723Z,993.4
2017-12-27T01:47:38.555Z,993.35
2017-12-27T01:48:47.382Z,993.29
2017-12-27T01:49:56.203Z,993.2
2017-12-27T01:51:05.027Z,993.15
2017-12-27T01:52:13.849Z,993.15
2017-12-27T01:53:22.672Z,993.1
2017-12-27T01:54:31.648Z,993.07
2017-12-27T01:55:40.673Z,993.01
2017-12-27T01:56:49.498Z,993.02
2017-12-27T01:57:58.324Z,992.98
2017-12-27T01:59:07.148Z,992.95
2017-12-27T02:00:15.973Z,992.91
2017-12-27T02:01:25.222Z,992.88
2017-12-27T02:02:34.046Z,992.83
2017-12-27T02:03:42.870Z,992.76
2017-12-27T02:04:51.694Z,992.8
2017-12-27T02:06:00.518Z,992.76
2017-12-27T02:07:09.345Z,992.75
2017-12-27T02:08:18.168Z,992.77
2017-12-27T02:09:27.274Z,992.75
2017-12-27T02:10:36.097Z,992.77
2017-12-27T02:11:44.921Z,992.77
2017-12-27T02:12:53.746Z,992.71
2017-12-27T02:14:02.575Z,992.69
2017-12-27T02:15:11.401Z,992.63
2017-12-27T02:16:20.228Z,992.64
2017-12-27T02:17:29.053Z,992.6
2017-12-27T02:18:38.129Z,992.63
2017-12-27T02:19:46.955Z,992.59
2017-12-27T02:20:55.780Z,992.56
2017-12-27T02:22:04.606Z,992.52
2017-12-27T02:23:13.708Z,992.44
2017-12-27T02:24:22.536Z,992.42
2017-12-27T02:25:31.361Z,992.37
2017-12-27T02:26:40.186Z,992.32
2017-12-27T02:27:49.009Z,992.33
2017-12-27T02:28:57.833Z,992.32
2017-12-27T02:30:06.807Z,992.32
2017-12-27T02:31:15.906Z,992.31
2017-12-27T02:32:24.730Z,992.29
2017-12-27T02:33:33.558Z,992.29
2017-12-27T02:34:42.381Z,992.26
2017-12-27T02:35:51.210Z,992.26
2017-12-27T02:37:00.035Z,992.22
2017-12-27T02:38:08.862Z,992.21
2017-12-27T02:39:17.690Z,992.16
2017-12-27T02:40:26.516Z,992.18
2017-12-27T02:41:35.488Z,992.12
2017-12-27T02:42:44.310Z,992.06
2017-12-27T02:43:53.188Z,991.99
2017-12-27T02:45:02.012Z,992.01
2017-12-27T02:46:10.840Z,991.95
2017-12-27T02:47:19.666Z,991.89
2017-12-27T02:48:28.491Z,991.83
2017-12-27T02:49:37.595Z,991.86
2017-12-27T02:50:46.422Z,991.83
2017-12-27T02:51:55.249Z,991.89
2017-12-27T02:53:04.222Z,991.9
2017-12-27T02:54:13.049Z,991.85
2017-12-27T02:55:21.872Z,991.82
2017-12-27T02:56:30.698Z,991.82
2017-12-27T02:57:39.522Z,991.84
2017-12-27T02:58:48.495Z,991.77
2017-12-27T02:59:57.320Z,991.77
2017-12-27T03:01:06.144Z,991.71
2017-12-27T03:02:14.969Z,991.66
2017-12-27T03:03:23.795Z,991.59
2017-12-27T03:04:32.668Z,991.6
2017-12-27T03:05:41.490Z,991.55
2017-12-27T03:06:50.318Z,991.46
2017-12-27T03:07:59.142Z,991.45
2017-12-27T03:09:07.968Z,991.41
2017-12-27T03:10:16.794Z,991.41
2017-12-27T03:11:25.617Z,991.32
2017-12-27T03:12:34.441Z,991.32
2017-12-27T03:13:43.264Z,991.27
2017-12-27T03:14:52.087Z,991.28
2017-12-27T03:16:00.962Z,991.32
2017-12-27T03:17:09.786Z,991.24
2017-12-27T03:18:18.612Z,991.21
2017-12-27T03:19:27.435Z,991.15
2017-12-27T03:20:36.261Z,991.07
2017-12-27T03:21:45.186Z,990.99
2017-12-27T03:22:54.009Z,990.93
2017-12-27T03:24:03.106Z,990.92
2017-12-27T03:25:11.933Z,990.84
2017-12-27T03:26:20.757Z,990.83
2017-12-27T03:27:29.681Z,990.82
2017-12-27T03:28:38.512Z,990.89
2017-12-27T03:29:47.330Z,990.97
2017-12-27T03:30:56.429Z,990.99
2017-12-27T03:32:05.252Z,990.97
2017-12-27T03:33:14.076Z,990.95
2017-12-27T03:34:22.900Z,990.9
2017-12-27T03:35:31.724Z,990.94
2017-12-27T03:36:40.547Z,990.9
2017-12-27T03:37:49.372Z,990.87
2017-12-27T03:38:58.297Z,990.85
2017-12-27T03:40:07.122Z,990.89
2017-12-27T03:41:15.946Z,990.9
2017-12-27T03:42:24.774Z,990.88
2017-12-27T03:43:33.597Z,990.85
2017-12-27T03:44:42.720Z,990.85
2017-12-27T03:45:51.544Z,990.83
2017-12-27T03:47:00.372Z,990.79
2017-12-27T03:48:09.198Z,990.75
2017-12-27T03:49:18.295Z,990.7
2017-12-27T03:50:27.870Z,990.58
2017-12-27T03:51:36.694Z,990.62
2017-12-27T03:52:45.801Z,990.61
2017-12-27T03:53:54.621Z,990.52
2017-12-27T03:55:03.449Z,990.46
2017-12-27T03:56:12.795Z,990.46
2017-12-27T03:57:21.619Z,990.42
2017-12-27T03:58:30.444Z,990.51
2017-12-27T03:59:39.274Z,990.48
2017-12-27T04:00:48.094Z,990.5
2017-12-27T04:01:56.920Z,990.45
2017-12-27T04:03:06.021Z,990.36
2017-12-27T04:04:14.843Z,990.34
2017-12-27T04:05:23.673Z,990.39
2017-12-27T04:06:32.767Z,990.35
2017-12-27T04:07:41.588Z,990.33
2017-12-27T04:08:50.414Z,990.29
2017-12-27T04:09:59.514Z,990.26
2017-12-27T04:11:08.337Z,990.26
2017-12-27T04:12:17.162Z,990.21
2017-12-27T04:13:26.136Z,990.24
2017-12-27T04:14:34.959Z,990.2
2017-12-27T04:15:43.783Z,990.18
2017-12-27T04:16:52.605Z,990.1
2017-12-27T04:18:01.428Z,990.13
2017-12-27T04:19:10.254Z,990.06
2017-12-27T04:20:19.077Z,990.05
2017-12-27T04:21:27.906Z,989.99
2017-12-27T04:22:36.728Z,989.96
2017-12-27T04:23:45.552Z,989.97
2017-12-27T04:24:55.105Z,989.98
2017-12-27T04:26:03.900Z,989.96
2017-12-27T04:27:12.723Z,989.92
2017-12-27T04:28:21.549Z,989.91
2017-12-27T04:29:30.372Z,989.91
2017-12-27T04:30:39.497Z,989.92
2017-12-27T04:31:48.325Z,989.86
2017-12-27T04:32:57.150Z,989.86
2017-12-27T04:34:05.974Z,989.91
2017-12-27T04:35:14.800Z,989.85
2017-12-27T04:36:23.932Z,989.82
2017-12-27T04:37:32.749Z,989.75
2017-12-27T04:38:41.574Z,989.71
2017-12-27T04:39:50.399Z,989.76
2017-12-27T04:40:59.503Z,989.71
2017-12-27T04:42:08.974Z,989.66
2017-12-27T04:43:17.797Z,989.64
2017-12-27T04:44:26.624Z,989.62
2017-12-27T04:45:35.447Z,989.68
2017-12-27T04:46:44.270Z,989.63
2017-12-27T04:47:53.146Z,989.59
2017-12-27T04:49:01.970Z,989.57
2017-12-27T04:50:10.795Z,989.59
2017-12-27T04:51:19.619Z,989.57
2017-12-27T04:52:28.446Z,989.56
2017-12-27T04:53:37.541Z,989.52
2017-12-27T04:54:46.364Z,989.49
2017-12-27T04:55:55.186Z,989.39
2017-12-27T04:57:04.012Z,989.4
2017-12-27T04:58:12.836Z,989.38
2017-12-27T04:59:21.711Z,989.39
2017-12-27T05:00:30.536Z,989.37
2017-12-27T05:01:39.360Z,989.33
2017-12-27T05:02:48.193Z,989.32
2017-12-27T05:03:57.288Z,989.28
2017-12-27T05:05:06.211Z,989.26
2017-12-27T05:06:15.038Z,989.26
2017-12-27T05:07:23.862Z,989.24
2017-12-27T05:08:32.686Z,989.22
2017-12-27T05:09:41.511Z,989.23
2017-12-27T05:10:50.640Z,989.17
2017-12-27T05:11:59.464Z,989.17
2017-12-27T05:13:08.287Z,989.19
2017-12-27T05:14:17.115Z,989.17
2017-12-27T05:15:26.217Z,989.08
2017-12-27T05:16:35.090Z,989.09
2017-12-27T05:17:43.915Z,989.07
2017-12-27T05:18:52.738Z,989.1
2017-12-27T05:20:01.567Z,989.05
2017-12-27T05:21:10.393Z,989.02
2017-12-27T05:22:19.494Z,988.99
2017-12-27T05:23:28.320Z,989.06
2017-12-27T05:24:37.143Z,988.98
2017-12-27T05:25:45.969Z,988.96
2017-12-27T05:26:54.796Z,988.92
2017-12-27T05:28:03.619Z,988.92
2017-12-27T05:29:12.442Z,988.94
2017-12-27T05:30:21.267Z,988.86
2017-12-27T05:31:30.092Z,988.84
2017-12-27T05:32:38.917Z,988.87
2017-12-27T05:33:47.843Z,988.84
2017-12-27T05:34:56.720Z,988.82
2017-12-27T05:36:05.546Z,988.81
2017-12-27T05:37:14.371Z,988.73
2017-12-27T05:38:23.198Z,988.75
2017-12-27T05:39:32.023Z,988.69
2017-12-27T05:40:40.848Z,988.61
2017-12-27T05:41:49.674Z,988.62
2017-12-27T05:42:58.497Z,988.61
2017-12-27T05:44:07.323Z,988.6
2017-12-27T05:45:16.452Z,988.52
2017-12-27T05:46:25.546Z,988.54
2017-12-27T05:47:34.373Z,988.5
2017-12-27T05:48:43.200Z,988.5
2017-12-27T05:49:52.024Z,988.43
2017-12-27T05:51:01.001Z,988.37
2017-12-27T05:52:09.827Z,988.32
2017-12-27T05:53:18.651Z,988.35
2017-12-27T05:54:27.478Z,988.32
2017-12-27T05:55:36.307Z,988.27
2017-12-27T05:56:45.129Z,988.26
2017-12-27T05:57:53.953Z,988.26
2017-12-27T05:59:02.780Z,988.29
2017-12-27T06:00:11.606Z,988.23
2017-12-27T06:01:20.705Z,988.25
2017-12-27T06:02:29.532Z,988.25
2017-12-27T06:03:38.358Z,988.17
2017-12-27T06:04:47.181Z,988.16
2017-12-27T06:05:56.007Z,988.16
2017-12-27T06:07:04.831Z,988.1
2017-12-27T06:08:13.707Z,988.06
2017-12-27T06:09:22.532Z,988.05
2017-12-27T06:10:31.358Z,988.01
2017-12-27T06:11:40.181Z,988.06
2017-12-27T06:12:49.008Z,988.09
2017-12-27T06:13:58.385Z,988
2017-12-27T06:15:07.209Z,988.07
2017-12-27T06:16:16.042Z,987.99
2017-12-27T06:17:24.869Z,987.96
2017-12-27T06:18:33.693Z,987.83
2017-12-27T06:19:42.570Z,987.88
2017-12-27T06:20:51.396Z,987.79
2017-12-27T06:22:00.226Z,987.77
2017-12-27T06:23:09.053Z,987.73
2017-12-27T06:24:17.878Z,987.77
2017-12-27T06:25:27.005Z,987.77
2017-12-27T06:26:35.831Z,987.72
2017-12-27T06:27:44.660Z,987.7
2017-12-27T06:28:53.487Z,987.68
2017-12-27T06:30:02.315Z,987.69
2017-12-27T06:31:11.239Z,987.63
2017-12-27T06:32:20.065Z,987.59
2017-12-27T06:33:28.891Z,987.59
2017-12-27T06:34:37.717Z,987.56
2017-12-27T06:35:46.543Z,987.53
2017-12-27T06:36:55.670Z,987.52
2017-12-27T06:38:04.497Z,987.48
2017-12-27T06:39:13.864Z,987.47
2017-12-27T06:40:22.693Z,987.44
2017-12-27T06:41:31.515Z,987.46
2017-12-27T06:42:40.492Z,987.35
2017-12-27T06:43:49.590Z,987.38
2017-12-27T06:44:58.417Z,987.33
2017-12-27T06:46:07.241Z,987.32
2017-12-27T06:47:16.067Z,987.28
2017-12-27T06:48:25.092Z,987.31
2017-12-27T06:49:33.919Z,987.25
2017-12-27T06:50:42.743Z,987.29
2017-12-27T06:51:51.569Z,987.24
2017-12-27T06:53:00.445Z,987.24
2017-12-27T06:54:09.422Z,987.23
2017-12-27T06:55:18.246Z,987.25
2017-12-27T06:56:27.074Z,987.22
2017-12-27T06:57:35.902Z,987.18
2017-12-27T06:58:45.000Z,987.12
2017-12-27T06:59:53.835Z,987.14
2017-12-27T07:01:02.653Z,987.05
2017-12-27T07:02:11.751Z,987.02
2017-12-27T07:03:20.573Z,987.06
2017-12-27T07:04:29.399Z,987.03
2017-12-27T07:05:38.275Z,987
2017-12-27T07:06:47.102Z,987.02
2017-12-27T07:07:55.926Z,986.95
2017-12-27T07:09:04.756Z,986.99
2017-12-27T07:10:13.582Z,986.92
2017-12-27T07:11:22.558Z,986.96
2017-12-27T07:12:31.384Z,986.92
2017-12-27T07:13:40.212Z,986.93
2017-12-27T07:14:49.038Z,986.94
2017-12-27T07:15:57.863Z,986.93
2017-12-27T07:17:06.948Z,986.9
2017-12-27T07:18:15.767Z,986.94
2017-12-27T07:19:24.866Z,986.94
2017-12-27T07:20:33.693Z,986.94
2017-12-27T07:21:42.519Z,986.92
2017-12-27T07:22:51.396Z,986.89
2017-12-27T07:24:00.223Z,986.89
2017-12-27T07:25:09.050Z,986.9
2017-12-27T07:26:17.875Z,986.88
2017-12-27T07:27:26.702Z,986.87
2017-12-27T07:28:35.528Z,986.86
2017-12-27T07:29:44.352Z,986.85
2017-12-27T07:30:53.178Z,986.84
2017-12-27T07:32:02.007Z,986.88
2017-12-27T07:33:10.834Z,986.83
2017-12-27T07:34:19.961Z,986.82
2017-12-27T07:35:28.788Z,986.77
2017-12-27T07:36:37.613Z,986.77
2017-12-27T07:37:46.440Z,986.73
2017-12-27T07:38:55.266Z,986.77
2017-12-27T07:40:04.141Z,986.76
2017-12-27T07:41:12.966Z,986.7
2017-12-27T07:42:21.791Z,986.75
2017-12-27T07:43:30.616Z,986.65
2017-12-27T07:44:39.447Z,986.71
2017-12-27T07:45:48.820Z,986.67
2017-12-27T07:46:57.648Z,986.76
2017-12-27T07:48:06.476Z,986.66
2017-12-27T07:49:15.577Z,986.64
2017-12-27T07:50:24.404Z,986.66
2017-12-27T07:51:33.276Z,986.56
2017-12-27T07:52:42.108Z,986.56
2017-12-27T07:53:50.958Z,986.57
2017-12-27T07:54:59.787Z,986.54
2017-12-27T07:56:08.614Z,986.53
2017-12-27T07:57:17.688Z,986.48
2017-12-27T07:58:26.519Z,986.5
2017-12-27T07:59:35.354Z,986.49
2017-12-27T08:00:44.180Z,986.47
2017-12-27T08:01:53.056Z,986.49
2017-12-27T08:03:01.982Z,986.49
2017-12-27T08:04:10.808Z,986.48
2017-12-27T08:05:19.637Z,986.47
2017-12-27T08:06:28.462Z,986.49
2017-12-27T08:07:37.288Z,986.42
2017-12-27T08:08:46.115Z,986.42
2017-12-27T08:09:54.940Z,986.44
2017-12-27T08:11:03.768Z,986.41
2017-12-27T08:12:12.595Z,986.38
2017-12-27T08:13:21.419Z,986.42
2017-12-27T08:14:30.246Z,986.41
2017-12-27T08:15:39.072Z,986.35
2017-12-27T08:16:47.898Z,986.33
2017-12-27T08:17:56.722Z,986.3
2017-12-27T08:19:05.550Z,986.32
2017-12-27T08:20:14.679Z,986.29
2017-12-27T08:21:23.506Z,986.28
2017-12-27T08:22:32.331Z,986.28
2017-12-27T08:23:41.158Z,986.24
2017-12-27T08:24:49.985Z,986.25
2017-12-27T08:25:59.109Z,986.22
2017-12-27T08:27:07.994Z,986.26
2017-12-27T08:28:16.816Z,986.25
2017-12-27T08:29:25.642Z,986.31
2017-12-27T08:30:34.470Z,986.31
2017-12-27T08:31:43.619Z,986.26
2017-12-27T08:32:52.747Z,986.23
2017-12-27T08:34:01.575Z,986.26
2017-12-27T08:35:10.400Z,986.27
2017-12-27T08:36:19.227Z,986.2
2017-12-27T08:37:28.055Z,986.21
2017-12-27T08:38:36.980Z,986.2
2017-12-27T08:39:45.807Z,986.28
2017-12-27T08:40:54.632Z,986.28
2017-12-27T08:42:03.737Z,986.25
2017-12-27T08:43:12.613Z,986.26
2017-12-27T08:44:21.443Z,986.18
2017-12-27T08:45:30.268Z,986.18
2017-12-27T08:46:39.095Z,986.13
2017-12-27T08:47:47.919Z,986.21
2017-12-27T08:48:56.898Z,986.14
2017-12-27T08:50:05.724Z,986.15
2017-12-27T08:51:14.550Z,986.14
2017-12-27T08:52:23.375Z,986.17
2017-12-27T08:53:32.204Z,986.14
2017-12-27T08:54:41.081Z,986.13
2017-12-27T08:55:49.958Z,986.09
2017-12-27T08:56:58.786Z,986.16
2017-12-27T08:58:07.611Z,986.1
2017-12-27T08:59:16.438Z,986.03
2017-12-27T09:00:25.263Z,986.03
2017-12-27T09:01:34.090Z,986.03
2017-12-27T09:02:42.918Z,986.02
2017-12-27T09:03:51.746Z,986.05
2017-12-27T09:05:00.728Z,986.01
2017-12-27T09:06:09.554Z,986
2017-12-27T09:07:18.379Z,986.04
2017-12-27T09:08:27.208Z,986.04
2017-12-27T09:09:36.036Z,986.05
2017-12-27T09:10:44.863Z,986.04
2017-12-27T09:11:53.691Z,986.04
2017-12-27T09:13:02.519Z,986.04
2017-12-27T09:14:11.345Z,986.06
2017-12-27T09:15:20.190Z,986.03
2017-12-27T09:16:29.020Z,986.04
2017-12-27T09:17:37.852Z,986.05
2017-12-27T09:18:46.953Z,986.05
2017-12-27T09:19:55.781Z,985.99
2017-12-27T09:21:04.611Z,986.01
2017-12-27T09:22:13.438Z,985.99
2017-12-27T09:23:22.264Z,986.04
2017-12-27T09:24:31.104Z,985.94
2017-12-27T09:25:39.934Z,985.97
2017-12-27T09:26:48.764Z,985.99
2017-12-27T09:27:57.590Z,985.96
2017-12-27T09:29:06.416Z,985.93
2017-12-27T09:30:15.246Z,985.91
2017-12-27T09:31:24.073Z,985.93
2017-12-27T09:32:32.900Z,985.98
2017-12-27T09:33:41.729Z,985.95
2017-12-27T09:34:50.557Z,985.91
2017-12-27T09:35:59.385Z,985.95
2017-12-27T09:37:08.215Z,985.93
2017-12-27T09:38:17.042Z,985.97
2017-12-27T09:39:25.866Z,985.95
2017-12-27T09:40:34.696Z,985.92
2017-12-27T09:41:43.524Z,985.99
2017-12-27T09:42:52.350Z,985.97
2017-12-27T09:44:01.179Z,985.97
2017-12-27T09:45:10.006Z,985.96
2017-12-27T09:46:18.919Z,985.95
2017-12-27T09:47:27.745Z,985.93
2017-12-27T09:48:36.624Z,985.93
2017-12-27T09:49:45.451Z,985.85
2017-12-27T09:50:54.278Z,985.91
2017-12-27T09:52:03.109Z,985.92
2017-12-27T09:53:11.934Z,985.91
2017-12-27T09:54:20.862Z,985.85
2017-12-27T09:55:29.971Z,985.87
2017-12-27T09:56:38.798Z,985.81
2017-12-27T09:57:47.639Z,985.85
2017-12-27T09:58:56.451Z,985.82
2017-12-27T10:00:05.529Z,985.75
2017-12-27T10:01:14.360Z,985.76
2017-12-27T10:02:23.189Z,985.76
2017-12-27T10:03:32.015Z,985.71
2017-12-27T10:04:40.856Z,985.72
2017-12-27T10:05:49.833Z,985.71
2017-12-27T10:06:58.662Z,985.68
2017-12-27T10:08:07.488Z,985.58
2017-12-27T10:09:16.316Z,985.58
2017-12-27T10:10:25.148Z,985.53
2017-12-27T10:11:34.128Z,985.51
2017-12-27T10:12:42.957Z,985.43
2017-12-27T10:13:51.785Z,985.43
2017-12-27T10:15:00.613Z,985.43
2017-12-27T10:16:09.440Z,985.43
2017-12-27T10:17:18.324Z,985.42
2017-12-27T10:18:27.154Z,985.4
2017-12-27T10:19:35.982Z,985.35
2017-12-27T10:20:45.085Z,985.37
2017-12-27T10:21:53.913Z,985.36
2017-12-27T10:23:03.015Z,985.31
2017-12-27T10:24:11.845Z,985.33
2017-12-27T10:25:20.674Z,985.33
2017-12-27T10:26:29.500Z,985.31
2017-12-27T10:27:38.329Z,985.31
2017-12-27T10:28:47.509Z,985.3
2017-12-27T10:29:56.339Z,985.29
2017-12-27T10:31:05.168Z,985.25
2017-12-27T10:32:13.997Z,985.22
2017-12-27T10:33:22.825Z,985.16
2017-12-27T10:34:31.653Z,985.19
2017-12-27T10:35:40.481Z,985.19
2017-12-27T10:36:49.349Z,985.05
2017-12-27T10:37:58.136Z,985.11
2017-12-27T10:39:06.969Z,985
2017-12-27T10:40:15.942Z,985.01
2017-12-27T10:41:24.774Z,985.01
2017-12-27T10:42:33.603Z,985.01
2017-12-27T10:43:42.431Z,984.97
2017-12-27T10:44:51.258Z,985.01
2017-12-27T10:46:00.511Z,984.96
2017-12-27T10:47:09.340Z,984.95
2017-12-27T10:48:18.167Z,985
2017-12-27T10:49:26.995Z,984.95
2017-12-27T10:50:35.821Z,984.97
2017-12-27T10:51:45.048Z,984.96
2017-12-27T10:52:54.423Z,984.91
2017-12-27T10:54:03.526Z,984.97
2017-12-27T10:55:12.353Z,985
2017-12-27T10:56:21.179Z,984.98
2017-12-27T10:57:30.307Z,984.92
2017-12-27T10:58:39.134Z,984.87
2017-12-27T10:59:47.962Z,984.85
2017-12-27T11:00:56.793Z,984.88
2017-12-27T11:02:05.650Z,984.83
2017-12-27T11:03:14.478Z,984.89
2017-12-27T11:04:23.322Z,984.8
2017-12-27T11:05:32.147Z,984.83
2017-12-27T11:06:40.993Z,984.86
2017-12-27T11:07:49.869Z,984.83
2017-12-27T11:08:58.897Z,984.82
2017-12-27T11:10:07.729Z,984.76
2017-12-27T11:11:16.555Z,984.78
2017-12-27T11:12:25.656Z,984.86
2017-12-27T11:13:34.486Z,984.8
2017-12-27T11:14:43.715Z,984.74
2017-12-27T11:15:52.818Z,984.76
2017-12-27T11:17:01.656Z,984.7
2017-12-27T11:18:10.485Z,984.75
2017-12-27T11:19:19.364Z,984.83
2017-12-27T11:20:28.291Z,984.78
2017-12-27T11:21:37.122Z,984.76
2017-12-27T11:22:45.953Z,984.81
2017-12-27T11:23:54.783Z,984.79
2017-12-27T11:25:03.612Z,984.85
2017-12-27T11:26:12.444Z,984.78
2017-12-27T11:27:21.273Z,984.83
2017-12-27T11:28:30.386Z,984.77
2017-12-27T11:29:39.226Z,984.73
2017-12-27T11:30:48.065Z,984.71
2017-12-27T11:31:57.094Z,984.68
2017-12-27T11:33:05.930Z,984.66
2017-12-27T11:34:14.760Z,984.69
2017-12-27T11:35:23.588Z,984.65
2017-12-27T11:36:32.416Z,984.64
2017-12-27T11:37:41.396Z,984.6
2017-12-27T11:38:50.223Z,984.57
2017-12-27T11:39:59.054Z,984.51
2017-12-27T11:41:07.914Z,984.48
2017-12-27T11:42:17.618Z,984.53
2017-12-27T11:43:26.547Z,984.52
2017-12-27T11:44:35.374Z,984.54
2017-12-27T11:45:44.204Z,984.54
2017-12-27T11:46:53.031Z,984.59
2017-12-27T11:48:01.859Z,984.6
2017-12-27T11:49:10.840Z,984.61
2017-12-27T11:50:19.673Z,984.49
2017-12-27T11:51:28.778Z,984.5
2017-12-27T11:52:37.607Z,984.51
2017-12-27T11:53:46.435Z,984.45
2017-12-27T11:54:55.365Z,984.45
2017-12-27T11:56:04.196Z,984.44
2017-12-27T11:57:13.300Z,984.47
2017-12-27T11:58:22.130Z,984.57
2017-12-27T11:59:30.958Z,984.51
2017-12-27T12:00:39.888Z,984.44
2017-12-27T12:01:48.720Z,984.51
2017-12-27T12:02:57.549Z,984.43
2017-12-27T12:04:06.376Z,984.48
2017-12-27T12:05:15.207Z,984.36
2017-12-27T12:06:24.191Z,984.38
2017-12-27T12:07:33.325Z,984.39
2017-12-27T12:08:42.243Z,984.38
2017-12-27T12:09:51.072Z,984.36
2017-12-27T12:10:59.903Z,984.41
2017-12-27T12:12:09.102Z,984.42
2017-12-27T12:13:18.222Z,984.43
2017-12-27T12:14:27.048Z,984.38
2017-12-27T12:15:35.879Z,984.42
2017-12-27T12:16:44.708Z,984.41
2017-12-27T12:17:53.686Z,984.33
2017-12-27T12:19:02.522Z,984.26
2017-12-27T12:20:11.349Z,984.27
2017-12-27T12:21:20.178Z,984.28
2017-12-27T12:22:29.005Z,984.24
2017-12-27T12:23:38.031Z,984.24
2017-12-27T12:24:46.860Z,984.25
2017-12-27T12:25:55.688Z,984.23
2017-12-27T12:27:04.793Z,984.24
2017-12-27T12:28:13.624Z,984.21
2017-12-27T12:29:22.823Z,984.21
2017-12-27T12:30:31.654Z,984.2
2017-12-27T12:31:40.755Z,984.18
2017-12-27T12:32:49.581Z,984.12
2017-12-27T12:33:58.409Z,984.16
2017-12-27T12:35:07.288Z,984.14
2017-12-27T12:36:16.118Z,984.12
2017-12-27T12:37:24.975Z,984.12
2017-12-27T12:38:33.783Z,984.12
2017-12-27T12:39:42.609Z,984.06
2017-12-27T12:40:51.441Z,984.05
2017-12-27T12:42:00.268Z,984
2017-12-27T12:43:09.097Z,983.98
2017-12-27T12:44:17.924Z,983.99
2017-12-27T12:45:26.753Z,983.92
2017-12-27T12:46:35.632Z,983.93
2017-12-27T12:47:44.735Z,983.91
2017-12-27T12:48:53.564Z,983.9
2017-12-27T12:50:02.396Z,983.92
2017-12-27T12:51:11.226Z,983.84
2017-12-27T12:52:20.158Z,983.83
2017-12-27T12:53:28.986Z,983.78
2017-12-27T12:54:37.813Z,983.76
2017-12-27T12:55:46.644Z,983.73
2017-12-27T12:56:55.474Z,983.73
2017-12-27T12:58:04.402Z,983.72
2017-12-27T12:59:13.234Z,983.66
2017-12-27T13:00:22.066Z,983.62
2017-12-27T13:01:30.896Z,983.61
2017-12-27T13:02:40.004Z,983.59
2017-12-27T13:03:48.834Z,983.59
2017-12-27T13:04:57.665Z,983.6
2017-12-27T13:06:06.495Z,983.63
2017-12-27T13:07:15.323Z,983.58
2017-12-27T13:08:24.153Z,983.55
2017-12-27T13:09:33.232Z,983.56
2017-12-27T13:10:42.060Z,983.55
2017-12-27T13:11:50.887Z,983.54
2017-12-27T13:12:59.722Z,983.57
2017-12-27T13:14:08.546Z,983.55
2017-12-27T13:15:17.474Z,983.57
2017-12-27T13:16:26.302Z,983.55
2017-12-27T13:17:35.130Z,983.52
2017-12-27T13:18:43.958Z,983.55
2017-12-27T13:19:52.788Z,983.54
2017-12-27T13:21:01.765Z,983.53
2017-12-27T13:22:10.591Z,983.57
2017-12-27T13:23:19.420Z,983.52
2017-12-27T13:24:28.249Z,983.54
2017-12-27T13:25:37.348Z,983.48
2017-12-27T13:26:46.176Z,983.52
2017-12-27T13:27:55.004Z,983.47
2017-12-27T13:29:03.829Z,983.49
2017-12-27T13:30:12.657Z,983.51
2017-12-27T13:31:21.485Z,983.51
2017-12-27T13:32:30.318Z,983.53
2017-12-27T13:33:39.145Z,983.54
2017-12-27T13:34:47.971Z,983.5
2017-12-27T13:35:56.800Z,983.48
2017-12-27T13:37:05.628Z,983.53
2017-12-27T13:38:14.455Z,983.48
2017-12-27T13:39:23.286Z,983.49
2017-12-27T13:40:32.119Z,983.48
2017-12-27T13:41:40.947Z,983.47
2017-12-27T13:42:49.777Z,983.52
2017-12-27T13:43:58.701Z,983.5
2017-12-27T13:45:07.530Z,983.52
2017-12-27T13:46:16.355Z,983.46
2017-12-27T13:47:25.183Z,983.52
2017-12-27T13:48:34.014Z,983.51
2017-12-27T13:49:43.144Z,983.47
2017-12-27T13:50:51.974Z,983.52
2017-12-27T13:52:01.129Z,983.57
2017-12-27T13:53:10.275Z,983.49
2017-12-27T13:54:19.104Z,983.55
2017-12-27T13:55:28.081Z,983.47
2017-12-27T13:56:36.915Z,983.47
2017-12-27T13:57:45.742Z,983.49
2017-12-27T13:58:54.571Z,983.5
2017-12-27T14:00:03.403Z,983.42
2017-12-27T14:01:12.505Z,983.44
2017-12-27T14:02:21.332Z,983.51
2017-12-27T14:03:30.160Z,983.48
2017-12-27T14:04:38.988Z,983.52
2017-12-27T14:05:47.815Z,983.54
2017-12-27T14:06:56.744Z,983.47
2017-12-27T14:08:05.575Z,983.49
2017-12-27T14:09:14.397Z,983.49
2017-12-27T14:10:23.225Z,983.55
2017-12-27T14:11:32.055Z,983.56
2017-12-27T14:12:40.981Z,983.6
2017-12-27T14:13:49.809Z,983.6
2017-12-27T14:14:58.640Z,983.51
2017-12-27T14:16:07.464Z,983.51
2017-12-27T14:17:16.291Z,983.53
2017-12-27T14:18:25.269Z,983.49
2017-12-27T14:19:34.099Z,983.47
2017-12-27T14:20:42.926Z,983.47
2017-12-27T14:21:52.028Z,983.49